createdAt,value
2023-03-19T00:00:11.958Z,4.70
2023-03-19T00:03:14.277Z,4.66
2023-03-19T00:06:16.741Z,4.61
2023-03-19T00:09:20.716Z,4.56
2023-03-19T00:12:23.497Z,4.71
2023-03-19T00:15:26.208Z,4.64
2023-03-19T00:18:28.688Z,4.51
2023-03-19T00:21:32.460Z,4.57
2023-03-19T00:24:34.884Z,4.69
2023-03-19T00:27:38.259Z,4.64
2023-03-19T00:30:41.083Z,4.59
2023-03-19T00:33:44.051Z,4.58
2023-03-19T00:36:47.671Z,4.49
2023-03-19T00:39:50.445Z,4.48
2023-03-19T00:42:52.811Z,4.47
2023-03-19T00:45:55.674Z,4.41
2023-03-19T00:48:58.960Z,4.47
2023-03-19T00:52:01.339Z,4.39
2023-03-19T00:55:03.853Z,4.48
2023-03-19T00:58:06.911Z,4.48
2023-03-19T01:01:11.147Z,4.55
2023-03-19T01:04:15.002Z,4.50
2023-03-19T01:07:17.787Z,4.55
2023-03-19T01:10:21.080Z,4.50
2023-03-19T01:13:23.524Z,4.65
2023-03-19T01:16:26.118Z,4.65
2023-03-19T01:19:28.961Z,4.66
2023-03-19T01:22:31.454Z,4.74
2023-03-19T01:25:35.869Z,4.74
2023-03-19T01:28:40.217Z,4.68
2023-03-19T01:31:43.795Z,4.72
2023-03-19T01:35:05.402Z,4.75
2023-03-19T01:38:08.140Z,4.70
2023-03-19T01:41:12.325Z,4.46
2023-03-19T01:44:28.565Z,4.55
2023-03-19T01:51:26.385Z,4.36
2023-03-19T01:54:32.097Z,4.27
2023-03-19T01:58:01.384Z,4.19
2023-03-19T02:01:36.053Z,4.23
2023-03-19T02:04:39.659Z,4.14
2023-03-19T02:07:42.794Z,4.30
2023-03-19T02:10:46.603Z,4.26
2023-03-19T02:13:49.594Z,4.27
2023-03-19T02:16:52.393Z,4.26
2023-03-19T02:20:00.640Z,4.23
2023-03-19T02:23:21.478Z,4.18
2023-03-19T02:26:29.843Z,3.69
2023-03-19T02:29:38.834Z,4.12
2023-03-19T02:32:42.887Z,4.10
2023-03-19T02:35:49.736Z,3.96
2023-03-19T02:38:54.339Z,4.06
2023-03-19T02:41:57.635Z,4.09
2023-03-19T02:45:01.978Z,4.11
2023-03-19T02:48:04.867Z,4.06
2023-03-19T02:51:07.552Z,4.20
2023-03-19T02:54:10.015Z,4.27
2023-03-19T02:57:12.377Z,4.20
2023-03-19T03:00:17.243Z,3.95
2023-03-19T03:03:19.651Z,4.19
2023-03-19T03:06:22.069Z,4.14
2023-03-19T03:09:24.505Z,4.20
2023-03-19T03:12:27.307Z,3.96
2023-03-19T03:15:29.844Z,4.06
2023-03-19T03:18:32.831Z,4.11
2023-03-19T03:21:35.763Z,4.09
2023-03-19T03:24:39.359Z,4.18
2023-03-19T03:27:41.993Z,4.40
2023-03-19T03:30:44.617Z,4.10
2023-03-19T03:33:47.037Z,3.92
2023-03-19T03:36:49.369Z,4.00
2023-03-19T03:39:51.753Z,3.83
2023-03-19T03:42:54.216Z,3.94
2023-03-19T03:45:57.692Z,3.79
2023-03-19T03:49:00.245Z,3.92
2023-03-19T03:52:02.592Z,4.12
2023-03-19T03:55:05.467Z,3.92
2023-03-19T03:58:08.161Z,3.91
2023-03-19T04:01:15.837Z,4.01
2023-03-19T04:04:20.369Z,4.13
2023-03-19T04:07:22.959Z,4.00
2023-03-19T04:10:31.565Z,3.80
2023-03-19T04:13:36.902Z,3.88
2023-03-19T04:16:40.616Z,3.70
2023-03-19T04:19:44.213Z,3.76
2023-03-19T04:22:46.802Z,3.75
2023-03-19T04:25:49.293Z,3.76
2023-03-19T04:28:51.771Z,3.64
2023-03-19T04:31:54.409Z,3.21
2023-03-19T04:34:58.516Z,3.35
2023-03-19T04:38:00.794Z,3.07
2023-03-19T04:41:04.315Z,3.05
2023-03-19T04:44:10.170Z,3.23
2023-03-19T04:47:15.236Z,3.09
2023-03-19T04:50:25.868Z,3.17
2023-03-19T04:53:29.628Z,2.92
2023-03-19T04:56:32.908Z,2.63
2023-03-19T04:59:36.689Z,2.69
2023-03-19T05:02:39.430Z,3.08
2023-03-19T05:05:41.917Z,3.25
2023-03-19T05:08:44.809Z,3.27
2023-03-19T05:11:49.042Z,3.38
2023-03-19T05:14:55.332Z,3.23
2023-03-19T05:18:05.212Z,3.30
2023-03-19T05:21:16.023Z,3.35
2023-03-19T05:24:19.475Z,3.59
2023-03-19T05:27:22.096Z,3.70
2023-03-19T05:30:45.307Z,3.44
2023-03-19T05:33:55.325Z,3.63
2023-03-19T05:36:58.536Z,3.70
2023-03-19T05:40:00.985Z,3.83
2023-03-19T05:43:04.416Z,3.87
2023-03-19T05:46:06.947Z,3.84
2023-03-19T05:49:09.754Z,4.11
2023-03-19T05:52:12.276Z,4.01
2023-03-19T05:55:14.781Z,3.93
2023-03-19T05:58:23.265Z,3.91
2023-03-19T06:01:26.049Z,4.04
2023-03-19T06:04:30.176Z,4.11
2023-03-19T06:07:33.097Z,4.32
2023-03-19T06:10:36.821Z,4.49
2023-03-19T06:13:44.086Z,4.53
2023-03-19T06:16:51.038Z,4.47
2023-03-19T06:19:53.440Z,4.39
2023-03-19T06:22:56.088Z,4.62
2023-03-19T06:25:58.442Z,4.40
2023-03-19T06:29:05.051Z,4.69
2023-03-19T06:32:08.374Z,4.55
2023-03-19T06:35:14.538Z,4.81
2023-03-19T06:38:20.252Z,5.00
2023-03-19T06:41:22.804Z,5.18
2023-03-19T06:44:26.511Z,5.20
2023-03-19T06:47:29.116Z,5.50
2023-03-19T06:50:31.651Z,5.71
2023-03-19T06:53:34.668Z,5.96
2023-03-19T06:56:37.519Z,5.86
2023-03-19T06:59:39.894Z,6.07
2023-03-19T07:02:42.244Z,6.12
2023-03-19T07:05:44.632Z,5.97
2023-03-19T07:08:47.108Z,5.97
2023-03-19T07:11:49.473Z,6.16
2023-03-19T07:14:51.928Z,6.02
2023-03-19T07:17:54.308Z,6.18
2023-03-19T07:20:56.625Z,6.39
2023-03-19T07:23:58.994Z,6.39
2023-03-19T07:27:02.412Z,6.43
2023-03-19T07:30:05.127Z,6.48
2023-03-19T07:33:08.382Z,6.52
2023-03-19T07:36:11.354Z,6.40
2023-03-19T07:39:13.769Z,6.62
2023-03-19T07:42:16.786Z,6.84
2023-03-19T07:45:19.539Z,6.83
2023-03-19T07:48:21.944Z,6.97
2023-03-19T07:51:24.286Z,6.94
2023-03-19T07:54:26.720Z,7.17
2023-03-19T07:57:29.172Z,7.25
2023-03-19T08:00:32.542Z,7.35
2023-03-19T08:03:35.197Z,7.47
2023-03-19T08:06:38.826Z,7.49
2023-03-19T08:09:41.422Z,7.45
2023-03-19T08:12:43.959Z,7.59
2023-03-19T08:15:46.481Z,7.55
2023-03-19T08:18:50.636Z,8.09
2023-03-19T08:21:53.754Z,8.36
2023-03-19T08:24:56.166Z,8.56
2023-03-19T08:28:01.764Z,8.80
2023-03-19T08:31:13.445Z,8.95
2023-03-19T08:34:16.050Z,9.14
2023-03-19T08:37:18.969Z,8.87
2023-03-19T08:40:21.352Z,9.10
2023-03-19T08:43:23.726Z,9.13
2023-03-19T08:46:27.754Z,9.26
2023-03-19T08:49:30.224Z,9.14
2023-03-19T08:52:32.790Z,9.18
2023-03-19T08:55:35.313Z,9.38
2023-03-19T08:58:37.903Z,9.69
2023-03-19T09:01:40.437Z,9.65
2023-03-19T09:04:46.360Z,9.87
2023-03-19T09:07:49.453Z,9.44
2023-03-19T09:10:52.017Z,9.80
2023-03-19T09:13:55.604Z,9.73
2023-03-19T09:16:58.583Z,9.76
2023-03-19T09:20:01.104Z,9.73
2023-03-19T09:23:03.644Z,9.68
2023-03-19T09:26:05.949Z,9.59
2023-03-19T09:29:08.363Z,9.63
2023-03-19T09:32:11.486Z,9.64
2023-03-19T09:35:14.830Z,9.81
2023-03-19T09:38:17.229Z,10.04
2023-03-19T09:41:38.207Z,10.15
2023-03-19T09:44:44.392Z,10.19
2023-03-19T09:47:51.694Z,10.71
2023-03-19T09:50:54.415Z,10.65
2023-03-19T09:54:00.882Z,10.82
2023-03-19T09:57:03.521Z,11.06
2023-03-19T10:00:22.754Z,11.19
2023-03-19T10:03:32.163Z,11.16
2023-03-19T10:06:36.843Z,11.32
2023-03-19T10:09:45.466Z,11.49
2023-03-19T10:13:08.872Z,11.40
2023-03-19T10:16:20.536Z,11.60
2023-03-19T10:19:26.586Z,11.61
2023-03-19T10:22:39.229Z,11.63
2023-03-19T10:25:42.591Z,12.00
2023-03-19T10:28:47.531Z,11.90
2023-03-19T10:32:01.238Z,12.09
2023-03-19T10:35:09.194Z,11.98
2023-03-19T10:38:31.344Z,11.93
2023-03-19T10:41:48.790Z,12.11
2023-03-19T10:45:01.239Z,12.21
2023-03-19T10:48:05.502Z,12.41
2023-03-19T10:51:08.523Z,12.58
2023-03-19T10:54:23.696Z,12.59
2023-03-19T10:57:28.196Z,12.90
2023-03-19T11:00:33.423Z,12.89
2023-03-19T11:03:41.823Z,12.88
2023-03-19T11:06:49.608Z,13.04
2023-03-19T11:09:52.568Z,13.06
2023-03-19T11:13:08.198Z,13.29
2023-03-19T11:16:10.872Z,13.29
2023-03-19T11:19:25.134Z,13.27
2023-03-19T11:22:38.117Z,13.30
2023-03-19T11:25:43.039Z,13.37
2023-03-19T11:28:45.402Z,13.45
2023-03-19T11:32:21.725Z,13.68
2023-03-19T11:35:29.679Z,13.96
2023-03-19T11:38:43.045Z,13.90
2023-03-19T11:41:54.936Z,14.01
2023-03-19T11:45:40.787Z,13.97
2023-03-19T11:49:02.711Z,14.14
2023-03-19T11:52:32.901Z,14.38
2023-03-19T11:55:42.595Z,14.24
2023-03-19T11:58:56.201Z,14.12
2023-03-19T12:02:16.707Z,14.27
2023-03-19T12:05:21.967Z,14.36
2023-03-19T12:08:47.792Z,14.39
2023-03-19T12:11:50.081Z,14.40
2023-03-19T12:15:01.541Z,14.63
2023-03-19T12:18:14.347Z,14.78
2023-03-19T12:21:20.419Z,14.70
2023-03-19T12:24:41.123Z,14.57
2023-03-19T12:27:46.452Z,14.82
2023-03-19T12:31:10.380Z,14.78
2023-03-19T12:34:29.839Z,15.05
2023-03-19T12:37:46.721Z,15.01
2023-03-19T12:41:25.146Z,15.22
2023-03-19T12:44:29.697Z,15.30
2023-03-19T12:47:38.682Z,15.20
2023-03-19T12:50:45.319Z,15.33
2023-03-19T12:53:56.623Z,15.48
2023-03-19T12:57:07.399Z,15.40
2023-03-19T13:00:09.875Z,15.39
2023-03-19T13:03:19.846Z,15.16
2023-03-19T13:06:57.059Z,15.37
2023-03-19T13:10:05.203Z,15.24
2023-03-19T13:13:46.790Z,15.32
2023-03-19T13:16:59.531Z,15.33
2023-03-19T13:20:24.536Z,15.08
2023-03-19T13:23:31.007Z,15.17
2023-03-19T13:26:34.964Z,15.07
2023-03-19T13:29:39.062Z,15.01
2023-03-19T13:32:49.868Z,14.98
2023-03-19T13:35:53.072Z,15.06
2023-03-19T13:38:56.476Z,14.89
2023-03-19T13:42:10.172Z,14.98
2023-03-19T13:45:21.208Z,15.13
2023-03-19T13:48:25.006Z,14.96
2023-03-19T13:51:30.906Z,15.01
2023-03-19T13:54:39.791Z,15.21
2023-03-19T13:57:42.667Z,14.96
2023-03-19T14:00:45.284Z,14.91
2023-03-19T14:04:02.802Z,14.97
2023-03-19T14:07:21.108Z,15.00
2023-03-19T14:10:25.881Z,14.76
2023-03-19T14:13:43.360Z,14.74
2023-03-19T14:16:49.879Z,14.74
2023-03-19T14:19:54.306Z,14.76
2023-03-19T14:23:04.454Z,14.78
2023-03-19T14:26:17.244Z,14.75
2023-03-19T14:29:20.151Z,14.40
2023-03-19T14:32:26.661Z,14.30
2023-03-19T14:35:29.365Z,14.50
2023-03-19T14:38:48.684Z,14.49
2023-03-19T14:42:19.939Z,14.38
2023-03-19T14:45:22.404Z,14.26
2023-03-19T14:48:36.771Z,14.15
2023-03-19T14:52:06.397Z,14.10
2023-03-19T14:55:17.709Z,14.02
2023-03-19T14:58:21.096Z,14.12
2023-03-19T15:01:27.441Z,14.11
2023-03-19T15:04:29.830Z,14.11
2023-03-19T15:07:41.122Z,14.09
2023-03-19T15:11:08.879Z,13.94
2023-03-19T15:14:23.150Z,13.90
2023-03-19T15:17:28.636Z,13.83
2023-03-19T15:20:36.950Z,13.79
2023-03-19T15:23:41.817Z,13.66
2023-03-19T15:26:44.744Z,13.63
2023-03-19T15:29:49.275Z,13.55
2023-03-19T15:33:08.295Z,13.52
2023-03-19T15:36:18.926Z,13.51
2023-03-19T15:39:24.172Z,13.51
2023-03-19T15:42:27.822Z,13.42
2023-03-19T15:45:33.954Z,13.36
2023-03-19T15:48:48.840Z,13.30
2023-03-19T15:51:53.695Z,13.24
2023-03-19T15:54:56.576Z,13.13
2023-03-19T15:58:05.659Z,13.12
2023-03-19T16:01:10.107Z,13.05
2023-03-19T16:04:20.994Z,13.01
2023-03-19T16:07:32.729Z,12.95
2023-03-19T16:10:42.013Z,12.83
2023-03-19T16:13:57.136Z,12.77
2023-03-19T16:17:14.545Z,12.71
2023-03-19T16:20:17.403Z,12.58
2023-03-19T16:23:19.923Z,12.56
2023-03-19T16:26:24.932Z,12.45
2023-03-19T16:29:44.488Z,12.33
2023-03-19T16:32:46.994Z,12.15
2023-03-19T16:35:52.648Z,12.14
2023-03-19T16:38:59.495Z,12.12
2023-03-19T16:42:14.964Z,12.08
2023-03-19T16:45:31.087Z,11.97
2023-03-19T16:48:33.777Z,11.87
2023-03-19T16:51:37.096Z,11.71
2023-03-19T16:54:39.575Z,11.77
2023-03-19T16:57:42.486Z,11.75
2023-03-19T17:00:45.982Z,11.71
2023-03-19T17:03:49.810Z,11.74
2023-03-19T17:06:53.239Z,11.82
2023-03-19T17:09:55.974Z,11.48
2023-03-19T17:12:58.518Z,11.59
2023-03-19T17:16:04.023Z,11.58
2023-03-19T17:19:11.093Z,11.52
2023-03-19T17:22:14.512Z,11.42
2023-03-19T17:25:18.477Z,11.39
2023-03-19T17:28:21.179Z,11.31
2023-03-19T17:31:28.892Z,11.30
2023-03-19T17:34:35.984Z,11.31
2023-03-19T17:37:40.359Z,11.32
2023-03-19T17:40:42.542Z,11.31
2023-03-19T17:43:45.244Z,11.20
2023-03-19T17:46:50.186Z,11.17
2023-03-19T17:49:53.390Z,11.14
2023-03-19T17:52:56.036Z,11.16
2023-03-19T17:55:58.753Z,11.01
2023-03-19T17:59:01.414Z,11.04
2023-03-19T18:02:04.705Z,10.94
2023-03-19T18:05:11.937Z,10.91
2023-03-19T18:08:17.387Z,10.86
2023-03-19T18:11:19.804Z,10.76
2023-03-19T18:14:22.572Z,10.71
2023-03-19T18:17:25.103Z,10.67
2023-03-19T18:20:29.889Z,10.66
2023-03-19T18:23:32.276Z,10.59
2023-03-19T18:26:34.654Z,10.65
2023-03-19T18:29:37.037Z,10.61
2023-03-19T18:32:45.760Z,10.59
2023-03-19T18:35:48.468Z,10.62
2023-03-19T18:38:50.997Z,10.56
2023-03-19T18:41:53.376Z,10.56
2023-03-19T18:44:55.681Z,10.50
2023-03-19T18:47:58.154Z,10.44
2023-03-19T18:51:00.794Z,10.32
2023-03-19T18:54:03.205Z,10.32
2023-03-19T18:57:05.873Z,10.28
2023-03-19T19:00:19.226Z,10.33
2023-03-19T19:03:28.625Z,10.28
2023-03-19T19:06:46.798Z,10.30
2023-03-19T19:09:49.634Z,10.26
2023-03-19T19:12:54.462Z,10.25
2023-03-19T19:15:56.944Z,10.18
2023-03-19T19:18:59.353Z,10.15
2023-03-19T19:22:01.809Z,10.12
2023-03-19T19:25:04.596Z,10.02
2023-03-19T19:28:13.436Z,10.06
2023-03-19T19:31:24.007Z,9.96
2023-03-19T19:34:26.473Z,9.98
2023-03-19T19:37:28.783Z,9.91
2023-03-19T19:40:31.953Z,9.89
2023-03-19T19:43:34.437Z,9.84
2023-03-19T19:46:36.734Z,9.80
2023-03-19T19:49:39.494Z,9.74
2023-03-19T19:52:41.882Z,9.73
2023-03-19T19:55:45.355Z,9.65
2023-03-19T19:58:49.598Z,9.66
2023-03-19T20:01:52.023Z,9.56
2023-03-19T20:04:54.364Z,9.58
2023-03-19T20:07:58.836Z,9.55
2023-03-19T20:11:02.270Z,9.53
2023-03-19T20:14:04.620Z,9.45
2023-03-19T20:17:07.002Z,9.42
2023-03-19T20:20:17.504Z,9.43
2023-03-19T20:23:20.914Z,9.42
2023-03-19T20:26:25.266Z,9.28
2023-03-19T20:29:29.702Z,9.19
2023-03-19T20:32:33.163Z,9.09
2023-03-19T20:35:37.284Z,8.99
2023-03-19T20:38:39.782Z,8.83
2023-03-19T20:41:42.237Z,8.67
2023-03-19T20:44:45.212Z,8.68
2023-03-19T20:47:48.310Z,8.67
2023-03-19T20:50:50.744Z,8.48
2023-03-19T20:53:53.222Z,8.75
2023-03-19T20:56:56.102Z,8.64
2023-03-19T21:00:03.353Z,8.47
2023-03-19T21:03:06.006Z,8.42
2023-03-19T21:06:19.787Z,8.33
2023-03-19T21:09:22.656Z,8.28
2023-03-19T21:12:29.255Z,8.23
2023-03-19T21:15:31.791Z,8.17
2023-03-19T21:18:34.118Z,8.09
2023-03-19T21:21:38.942Z,8.05
2023-03-19T21:24:41.612Z,7.98
2023-03-19T21:27:47.294Z,7.90
2023-03-19T21:30:49.669Z,7.87
2023-03-19T21:33:52.352Z,7.80
2023-03-19T21:36:55.063Z,7.78
2023-03-19T21:39:57.556Z,7.74
2023-03-19T21:43:02.552Z,7.67
2023-03-19T21:46:22.954Z,7.55
2023-03-19T21:49:26.468Z,7.40
2023-03-19T21:52:28.874Z,7.46
2023-03-19T21:55:32.993Z,7.45
2023-03-19T21:58:36.677Z,7.43
2023-03-19T22:01:39.013Z,7.31
2023-03-19T22:04:41.595Z,7.27
2023-03-19T22:07:44.230Z,7.21
2023-03-19T22:10:47.734Z,7.22
2023-03-19T22:13:50.101Z,7.29
2023-03-19T22:16:54.552Z,7.31
2023-03-19T22:19:58.314Z,7.31
2023-03-19T22:23:01.080Z,7.31
2023-03-19T22:26:03.356Z,7.23
2023-03-19T22:29:08.879Z,7.28
2023-03-19T22:32:17.766Z,7.25
2023-03-19T22:35:20.599Z,7.17
2023-03-19T22:38:23.679Z,7.23
2023-03-19T22:41:34.222Z,7.22
2023-03-19T22:44:36.592Z,7.14
2023-03-19T22:47:39.125Z,7.04
2023-03-19T22:50:41.666Z,6.98
2023-03-19T22:53:44.468Z,6.93
2023-03-19T22:56:46.793Z,6.90
2023-03-19T22:59:49.260Z,6.84
2023-03-19T23:02:57.466Z,6.86
2023-03-19T23:06:04.689Z,6.79
2023-03-19T23:09:08.506Z,6.65
2023-03-19T23:12:10.919Z,6.70
2023-03-19T23:15:13.262Z,6.63
2023-03-19T23:18:19.473Z,6.64
2023-03-19T23:21:23.557Z,6.51
2023-03-19T23:24:26.035Z,6.53
2023-03-19T23:27:28.578Z,6.53
2023-03-19T23:30:33.596Z,6.53
2023-03-19T23:33:36.137Z,6.54
2023-03-19T23:36:38.605Z,6.47
2023-03-19T23:39:41.286Z,6.52
2023-03-19T23:42:50.542Z,6.49
2023-03-19T23:45:53.341Z,6.40
2023-03-19T23:48:56.457Z,6.36
2023-03-19T23:51:59.298Z,6.34
2023-03-19T23:55:01.681Z,6.37
2023-03-19T23:58:04.034Z,6.35
